createdAt,value
2023-02-27T00:01:41.201Z,-0.63
2023-02-27T00:03:46.564Z,-0.61
2023-02-27T00:05:51.795Z,-0.71
2023-02-27T00:07:56.654Z,-0.75
2023-02-27T00:10:01.609Z,-0.78
2023-02-27T00:12:07.843Z,-0.80
2023-02-27T00:14:12.775Z,-0.85
2023-02-27T00:16:17.640Z,-0.89
2023-02-27T00:18:25.329Z,-0.96
2023-02-27T00:20:37.843Z,-1.00
2023-02-27T00:22:43.746Z,-1.06
2023-02-27T00:24:48.543Z,-0.98
2023-02-27T00:26:55.678Z,-0.95
2023-02-27T00:29:00.581Z,-0.94
2023-02-27T00:31:05.492Z,-0.97
2023-02-27T00:33:10.648Z,-0.95
2023-02-27T00:35:18.172Z,-0.93
2023-02-27T00:37:22.948Z,-0.90
2023-02-27T00:39:27.970Z,-0.84
2023-02-27T00:41:32.756Z,-0.85
2023-02-27T00:43:37.571Z,-0.90
2023-02-27T00:45:42.386Z,-0.90
2023-02-27T00:47:47.223Z,-0.96
2023-02-27T00:49:55.819Z,-1.02
2023-02-27T00:52:03.276Z,-0.99
2023-02-27T00:54:09.646Z,-0.97
2023-02-27T00:56:15.091Z,-0.96
2023-02-27T00:58:19.955Z,-1.06
2023-02-27T01:00:26.116Z,-1.07
2023-02-27T01:02:32.005Z,-1.03
2023-02-27T01:04:37.049Z,-1.04
2023-02-27T01:06:41.906Z,-1.05
2023-02-27T01:08:49.333Z,-1.04
2023-02-27T01:10:54.087Z,-1.13
2023-02-27T01:12:59.061Z,-1.11
2023-02-27T01:15:04.495Z,-1.09
2023-02-27T01:17:09.468Z,-1.12
2023-02-27T01:19:17.131Z,-1.13
2023-02-27T01:21:22.098Z,-1.15
2023-02-27T01:23:26.848Z,-1.10
2023-02-27T01:25:34.861Z,-1.10
2023-02-27T01:27:39.894Z,-1.02
2023-02-27T01:29:44.473Z,-1.03
2023-02-27T01:31:49.384Z,-1.09
2023-02-27T01:33:54.521Z,-1.05
2023-02-27T01:36:00.322Z,-1.09
2023-02-27T01:38:05.241Z,-1.11
2023-02-27T01:40:11.658Z,-1.10
2023-02-27T01:42:25.292Z,-1.18
2023-02-27T01:44:31.719Z,-1.19
2023-02-27T01:46:37.394Z,-1.16
2023-02-27T01:48:45.253Z,-1.13
2023-02-27T01:50:56.234Z,-1.09
2023-02-27T01:53:03.945Z,-1.05
2023-02-27T01:55:12.893Z,-1.06
2023-02-27T01:57:18.010Z,-1.03
2023-02-27T01:59:25.707Z,-1.01
2023-02-27T02:01:32.013Z,-0.98
2023-02-27T02:03:44.276Z,-0.93
2023-02-27T02:05:49.989Z,-0.86
2023-02-27T02:07:56.055Z,-0.92
2023-02-27T02:10:02.909Z,-0.92
2023-02-27T02:12:09.277Z,-0.88
2023-02-27T02:14:14.169Z,-0.94
2023-02-27T02:16:40.492Z,-0.90
2023-02-27T02:18:56.787Z,-0.86
2023-02-27T02:21:39.162Z,-0.81
2023-02-27T02:24:10.405Z,-0.78
2023-02-27T02:26:38.176Z,-0.83
2023-02-27T02:29:26.905Z,-0.86
2023-02-27T02:32:01.967Z,-0.89
2023-02-27T02:34:47.985Z,-0.92
2023-02-27T02:37:32.411Z,-1.02
2023-02-27T02:40:01.614Z,-1.07
2023-02-27T02:42:12.502Z,-1.06
2023-02-27T02:44:25.587Z,-1.01
2023-02-27T02:46:38.580Z,-0.96
2023-02-27T02:48:49.302Z,-1.02
2023-02-27T02:51:04.728Z,-1.00
2023-02-27T02:53:16.167Z,-0.97
2023-02-27T02:55:29.588Z,-0.97
2023-02-27T02:57:38.108Z,-0.98
2023-02-27T02:59:50.796Z,-1.08
2023-02-27T03:01:59.979Z,-1.12
2023-02-27T03:04:12.799Z,-1.17
2023-02-27T03:06:22.659Z,-1.22
2023-02-27T03:08:31.428Z,-1.23
2023-02-27T03:10:44.642Z,-1.31
2023-02-27T03:12:55.200Z,-1.35
2023-02-27T03:15:06.373Z,-1.37
2023-02-27T03:17:18.133Z,-1.41
2023-02-27T03:19:27.743Z,-1.49
2023-02-27T03:21:38.243Z,-1.49
2023-02-27T03:23:46.445Z,-1.58
2023-02-27T03:25:58.179Z,-1.62
2023-02-27T03:28:07.933Z,-1.70
2023-02-27T03:30:16.013Z,-1.67
2023-02-27T03:32:24.664Z,-1.68
2023-02-27T03:34:33.196Z,-1.71
2023-02-27T03:36:47.368Z,-1.67
2023-02-27T03:38:58.539Z,-1.66
2023-02-27T03:41:12.609Z,-1.68
2023-02-27T03:43:33.687Z,-1.69
2023-02-27T03:45:46.965Z,-1.73
2023-02-27T03:47:52.162Z,-1.75
2023-02-27T03:49:57.039Z,-1.78
2023-02-27T03:52:02.048Z,-1.86
2023-02-27T03:54:11.327Z,-1.91
2023-02-27T03:56:23.591Z,-1.88
2023-02-27T03:58:28.906Z,-1.82
2023-02-27T04:00:34.629Z,-1.80
2023-02-27T04:02:39.897Z,-1.76
2023-02-27T04:04:44.872Z,-1.77
2023-02-27T04:07:09.002Z,-1.74
2023-02-27T04:09:24.393Z,-1.74
2023-02-27T04:11:46.080Z,-1.78
2023-02-27T04:14:03.171Z,-1.77
2023-02-27T04:16:23.888Z,-1.74
2023-02-27T04:18:41.679Z,-1.75
2023-02-27T04:20:51.180Z,-1.79
2023-02-27T04:23:02.690Z,-1.79
2023-02-27T04:25:25.454Z,-1.79
2023-02-27T04:27:41.037Z,-1.77
2023-02-27T04:29:56.813Z,-1.73
2023-02-27T04:32:05.220Z,-1.73
2023-02-27T04:34:17.541Z,-1.72
2023-02-27T04:36:28.602Z,-1.71
2023-02-27T04:38:39.083Z,-1.75
2023-02-27T04:40:50.454Z,-1.76
2023-02-27T04:43:03.669Z,-1.77
2023-02-27T04:45:15.317Z,-1.77
2023-02-27T04:47:21.946Z,-1.78
2023-02-27T04:49:30.949Z,-1.77
2023-02-27T04:51:41.494Z,-1.82
2023-02-27T04:53:51.970Z,-1.82
2023-02-27T04:56:00.359Z,-1.83
2023-02-27T04:58:13.215Z,-1.82
2023-02-27T05:00:22.217Z,-1.82
2023-02-27T05:02:31.379Z,-1.79
2023-02-27T05:04:40.388Z,-1.78
2023-02-27T05:06:47.598Z,-1.77
2023-02-27T05:08:59.589Z,-1.76
2023-02-27T05:11:10.949Z,-1.73
2023-02-27T05:13:21.918Z,-1.73
2023-02-27T05:15:31.193Z,-1.71
2023-02-27T05:17:39.900Z,-1.71
2023-02-27T05:19:46.292Z,-1.73
2023-02-27T05:21:59.786Z,-1.75
2023-02-27T05:24:14.600Z,-1.75
2023-02-27T05:26:23.741Z,-1.77
2023-02-27T05:28:38.919Z,-1.79
2023-02-27T05:30:51.358Z,-1.82
2023-02-27T05:33:00.341Z,-1.81
2023-02-27T05:35:13.784Z,-1.88
2023-02-27T05:37:23.273Z,-1.93
2023-02-27T05:39:31.103Z,-1.96
2023-02-27T05:41:40.105Z,-2.06
2023-02-27T05:43:51.934Z,-2.09
2023-02-27T05:46:02.593Z,-2.06
2023-02-27T05:48:11.651Z,-2.07
2023-02-27T05:50:20.308Z,-2.09
2023-02-27T05:52:29.553Z,-2.08
2023-02-27T05:54:39.132Z,-2.07
2023-02-27T05:56:48.705Z,-2.06
2023-02-27T05:59:01.129Z,-2.10
2023-02-27T06:01:09.328Z,-2.12
2023-02-27T06:03:14.728Z,-2.11
2023-02-27T06:05:22.728Z,-2.08
2023-02-27T06:07:27.558Z,-2.14
2023-02-27T06:09:32.388Z,-2.12
2023-02-27T06:11:37.284Z,-2.21
2023-02-27T06:13:42.662Z,-2.27
2023-02-27T06:15:50.101Z,-2.29
2023-02-27T06:17:55.057Z,-2.29
2023-02-27T06:19:59.933Z,-2.33
2023-02-27T06:22:04.850Z,-2.28
2023-02-27T06:24:09.942Z,-2.25
2023-02-27T06:26:15.803Z,-2.25
2023-02-27T06:28:20.627Z,-2.24
2023-02-27T06:30:25.500Z,-2.22
2023-02-27T06:32:32.967Z,-2.19
2023-02-27T06:34:37.775Z,-2.19
2023-02-27T06:36:43.106Z,-2.17
2023-02-27T06:38:48.406Z,-2.16
2023-02-27T06:40:53.923Z,-2.18
2023-02-27T06:42:58.701Z,-2.14
2023-02-27T06:45:03.448Z,-2.10
2023-02-27T06:47:08.365Z,-2.08
2023-02-27T06:49:15.589Z,-2.15
2023-02-27T06:51:20.451Z,-2.11
2023-02-27T06:53:26.452Z,-2.16
2023-02-27T06:55:31.249Z,-2.11
2023-02-27T06:57:36.250Z,-2.07
2023-02-27T06:59:42.002Z,-2.10
2023-02-27T07:01:46.878Z,-2.07
2023-02-27T07:03:51.604Z,-2.04
2023-02-27T07:05:59.671Z,-2.01
2023-02-27T07:08:05.276Z,-2.04
2023-02-27T07:10:13.996Z,-2.01
2023-02-27T07:12:18.762Z,-1.99
2023-02-27T07:14:23.817Z,-1.99
2023-02-27T07:16:29.001Z,-1.97
2023-02-27T07:18:34.021Z,-1.91
2023-02-27T07:20:38.916Z,-1.85
2023-02-27T07:22:46.357Z,-1.86
2023-02-27T07:24:51.184Z,-1.86
2023-02-27T07:26:56.548Z,-1.83
2023-02-27T07:29:01.331Z,-1.78
2023-02-27T07:31:06.249Z,-1.75
2023-02-27T07:33:11.259Z,-1.78
2023-02-27T07:35:15.834Z,-1.82
2023-02-27T07:37:20.630Z,-1.78
2023-02-27T07:39:29.619Z,-1.75
2023-02-27T07:41:34.455Z,-1.68
2023-02-27T07:43:39.289Z,-1.63
2023-02-27T07:45:44.084Z,-1.54
2023-02-27T07:47:49.598Z,-1.52
2023-02-27T07:49:56.481Z,-1.44
2023-02-27T07:52:01.387Z,-1.41
2023-02-27T07:54:06.363Z,-1.35
2023-02-27T07:56:14.048Z,-1.31
2023-02-27T07:58:18.935Z,-1.24
2023-02-27T08:00:24.141Z,-1.18
2023-02-27T08:02:29.331Z,-1.19
2023-02-27T08:04:33.969Z,-1.16
2023-02-27T08:06:38.772Z,-1.10
2023-02-27T08:08:43.570Z,-1.12
2023-02-27T08:10:48.391Z,-1.14
2023-02-27T08:12:56.311Z,-1.09
2023-02-27T08:15:01.162Z,-1.10
2023-02-27T08:17:06.039Z,-1.02
2023-02-27T08:19:10.811Z,-0.94
2023-02-27T08:21:15.881Z,-0.90
2023-02-27T08:23:20.653Z,-0.81
2023-02-27T08:25:25.837Z,-0.73
2023-02-27T08:27:30.644Z,-0.76
2023-02-27T08:29:38.148Z,-0.79
2023-02-27T08:31:43.135Z,-0.79
2023-02-27T08:33:49.623Z,-0.68
2023-02-27T08:35:58.646Z,-0.62
2023-02-27T08:38:03.277Z,-0.55
2023-02-27T08:40:10.996Z,-0.44
2023-02-27T08:42:15.799Z,-0.32
2023-02-27T08:44:20.661Z,-0.27
2023-02-27T08:46:28.377Z,-0.22
2023-02-27T08:48:33.389Z,-0.15
2023-02-27T08:50:38.126Z,-0.10
2023-02-27T08:52:42.896Z,0.03
2023-02-27T08:54:47.657Z,0.03
2023-02-27T08:56:52.412Z,0.10
2023-02-27T08:58:57.881Z,0.08
2023-02-27T09:01:02.808Z,0.11
2023-02-27T09:03:10.262Z,0.15
2023-02-27T09:05:15.084Z,0.28
2023-02-27T09:07:19.921Z,0.29
2023-02-27T09:09:25.488Z,0.33
2023-02-27T09:11:30.895Z,0.44
2023-02-27T09:13:35.921Z,0.60
2023-02-27T09:15:40.725Z,0.67
2023-02-27T09:17:45.554Z,0.77
2023-02-27T09:19:54.446Z,0.84
2023-02-27T09:22:00.704Z,0.88
2023-02-27T09:24:17.582Z,0.85
2023-02-27T09:26:39.719Z,1.01
2023-02-27T09:28:47.248Z,1.16
2023-02-27T09:30:52.141Z,1.26
2023-02-27T09:32:57.488Z,1.34
2023-02-27T09:35:04.873Z,1.74
2023-02-27T09:37:09.678Z,2.04
2023-02-27T09:39:14.540Z,2.25
2023-02-27T09:41:35.613Z,2.29
2023-02-27T09:43:47.032Z,2.22
2023-02-27T09:45:56.174Z,1.95
2023-02-27T09:48:06.618Z,1.75
2023-02-27T09:50:27.726Z,1.71
2023-02-27T09:52:34.757Z,1.82
2023-02-27T09:54:39.563Z,1.76
2023-02-27T09:56:50.878Z,1.84
2023-02-27T09:59:03.878Z,1.90
2023-02-27T10:01:15.877Z,2.00
2023-02-27T10:03:41.741Z,2.10
2023-02-27T10:06:01.493Z,2.34
2023-02-27T10:08:13.212Z,2.60
2023-02-27T10:10:27.641Z,2.78
2023-02-27T10:12:49.211Z,2.82
2023-02-27T10:15:00.164Z,2.63
2023-02-27T10:17:08.812Z,2.49
2023-02-27T10:19:19.017Z,2.35
2023-02-27T10:21:32.201Z,2.22
2023-02-27T10:23:42.915Z,2.07
2023-02-27T10:25:52.175Z,1.95
2023-02-27T10:28:01.373Z,1.86
2023-02-27T10:30:29.595Z,1.89
2023-02-27T10:32:38.168Z,1.90
2023-02-27T10:34:45.186Z,1.80
2023-02-27T10:36:52.806Z,1.75
2023-02-27T10:39:04.416Z,1.83
2023-02-27T10:41:13.290Z,2.04
2023-02-27T10:43:19.994Z,2.26
2023-02-27T10:45:24.863Z,2.41
2023-02-27T10:47:29.896Z,2.47
2023-02-27T10:49:36.380Z,2.49
2023-02-27T10:51:41.172Z,2.49
2023-02-27T10:53:48.546Z,2.39
2023-02-27T10:56:03.270Z,2.43
2023-02-27T10:58:08.714Z,2.40
2023-02-27T11:00:26.101Z,2.37
2023-02-27T11:02:37.023Z,2.38
2023-02-27T11:04:43.290Z,2.16
2023-02-27T11:06:55.162Z,2.25
2023-02-27T11:09:22.362Z,2.29
2023-02-27T11:11:31.049Z,2.49
2023-02-27T11:13:38.227Z,2.64
2023-02-27T11:15:43.313Z,2.71
2023-02-27T11:17:48.107Z,2.71
2023-02-27T11:19:52.857Z,2.73
2023-02-27T11:22:09.125Z,2.63
2023-02-27T11:24:23.505Z,2.84
2023-02-27T11:26:36.367Z,3.11
2023-02-27T11:28:41.237Z,3.28
2023-02-27T11:30:46.608Z,3.50
2023-02-27T11:32:52.628Z,3.73
2023-02-27T11:35:00.481Z,3.88
2023-02-27T11:37:09.010Z,3.92
2023-02-27T11:39:29.193Z,4.00
2023-02-27T11:41:36.173Z,4.03
2023-02-27T11:43:49.978Z,4.14
2023-02-27T11:46:04.228Z,4.31
2023-02-27T11:48:13.929Z,4.38
2023-02-27T11:50:40.588Z,4.48
2023-02-27T11:52:52.956Z,4.52
2023-02-27T11:55:03.461Z,4.26
2023-02-27T11:57:17.240Z,4.27
2023-02-27T11:59:41.890Z,3.92
2023-02-27T12:01:52.214Z,3.75
2023-02-27T12:04:04.598Z,3.63
2023-02-27T12:06:17.768Z,3.58
2023-02-27T12:08:32.688Z,3.45
2023-02-27T12:10:50.174Z,3.40
2023-02-27T12:13:01.875Z,3.35
2023-02-27T12:15:18.304Z,3.36
2023-02-27T12:17:28.881Z,3.30
2023-02-27T12:19:41.572Z,3.28
2023-02-27T12:21:50.371Z,3.32
2023-02-27T12:24:00.917Z,3.42
2023-02-27T12:26:14.713Z,3.56
2023-02-27T12:28:34.265Z,3.45
2023-02-27T12:30:44.983Z,3.42
2023-02-27T12:32:57.404Z,3.42
2023-02-27T12:35:08.401Z,3.37
2023-02-27T12:37:16.435Z,3.33
2023-02-27T12:39:23.485Z,3.25
2023-02-27T12:41:49.466Z,3.20
2023-02-27T12:44:03.304Z,3.06
2023-02-27T12:46:26.312Z,3.24
2023-02-27T12:48:48.327Z,3.21
2023-02-27T12:51:01.099Z,3.38
2023-02-27T12:53:22.574Z,3.59
2023-02-27T12:55:30.735Z,3.73
2023-02-27T12:57:54.153Z,3.78
2023-02-27T13:00:18.699Z,3.81
2023-02-27T13:02:41.907Z,3.93
2023-02-27T13:04:49.409Z,3.94
2023-02-27T13:07:02.275Z,4.06
2023-02-27T13:09:18.979Z,4.14
2023-02-27T13:11:32.251Z,4.20
2023-02-27T13:13:58.800Z,4.30
2023-02-27T13:16:08.258Z,4.31
2023-02-27T13:18:45.591Z,4.15
2023-02-27T13:20:56.576Z,3.96
2023-02-27T13:23:09.248Z,3.86
2023-02-27T13:25:17.301Z,3.74
2023-02-27T13:27:28.699Z,3.66
2023-02-27T13:29:45.262Z,3.48
2023-02-27T13:32:00.181Z,3.37
2023-02-27T13:34:17.342Z,3.21
2023-02-27T13:36:27.776Z,3.12
2023-02-27T13:38:35.407Z,3.20
2023-02-27T13:40:42.753Z,3.23
2023-02-27T13:43:01.937Z,3.25
2023-02-27T13:45:44.636Z,3.34
2023-02-27T13:47:51.797Z,3.39
2023-02-27T13:49:58.133Z,3.56
2023-02-27T13:52:04.226Z,3.53
2023-02-27T13:54:24.425Z,3.49
2023-02-27T13:56:29.402Z,3.52
2023-02-27T13:58:34.248Z,3.61
2023-02-27T14:00:41.930Z,3.62
2023-02-27T14:03:00.006Z,3.60
2023-02-27T14:05:09.154Z,3.65
2023-02-27T14:07:18.720Z,3.58
2023-02-27T14:09:25.683Z,3.62
2023-02-27T14:11:34.523Z,3.66
2023-02-27T14:14:08.147Z,3.68
2023-02-27T14:16:36.160Z,3.75
2023-02-27T14:19:00.035Z,3.76
2023-02-27T14:21:04.939Z,3.82
2023-02-27T14:23:27.388Z,3.82
2023-02-27T14:25:38.034Z,3.74
2023-02-27T14:27:52.423Z,3.75
2023-02-27T14:30:01.480Z,3.80
2023-02-27T14:32:09.717Z,3.72
2023-02-27T14:34:18.920Z,3.56
2023-02-27T14:36:25.335Z,3.50
2023-02-27T14:38:31.978Z,3.43
2023-02-27T14:40:42.719Z,3.35
2023-02-27T14:42:54.653Z,3.18
2023-02-27T14:44:59.699Z,3.12
2023-02-27T14:47:05.722Z,3.03
2023-02-27T14:49:22.740Z,2.99
2023-02-27T14:51:30.604Z,3.03
2023-02-27T14:53:37.656Z,3.10
2023-02-27T14:55:42.568Z,3.12
2023-02-27T14:57:57.535Z,3.14
2023-02-27T15:00:02.824Z,3.08
2023-02-27T15:02:18.697Z,3.04
2023-02-27T15:04:31.754Z,2.90
2023-02-27T15:06:39.994Z,2.83
2023-02-27T15:08:48.580Z,2.65
2023-02-27T15:10:55.131Z,2.64
2023-02-27T15:13:00.700Z,2.51
2023-02-27T15:15:09.868Z,2.47
2023-02-27T15:17:19.755Z,2.47
2023-02-27T15:19:25.795Z,2.45
2023-02-27T15:21:35.862Z,2.42
2023-02-27T15:23:40.723Z,2.44
2023-02-27T15:25:45.718Z,2.62
2023-02-27T15:27:50.580Z,2.70
2023-02-27T15:29:58.125Z,2.68
2023-02-27T15:32:03.352Z,2.66
2023-02-27T15:34:15.591Z,2.57
2023-02-27T15:36:23.644Z,2.46
2023-02-27T15:38:33.778Z,2.41
2023-02-27T15:40:38.857Z,2.38
2023-02-27T15:42:43.597Z,2.38
2023-02-27T15:44:53.439Z,2.35
2023-02-27T15:46:59.655Z,2.30
2023-02-27T15:49:04.876Z,2.29
2023-02-27T15:51:12.050Z,2.24
2023-02-27T15:53:22.209Z,2.23
2023-02-27T15:55:32.863Z,2.22
2023-02-27T15:57:37.754Z,2.21
2023-02-27T15:59:45.026Z,2.24
2023-02-27T16:01:52.377Z,2.26
2023-02-27T16:03:59.231Z,2.21
2023-02-27T16:06:12.909Z,2.15
2023-02-27T16:08:21.231Z,2.18
2023-02-27T16:10:34.129Z,2.18
2023-02-27T16:13:04.053Z,2.08
2023-02-27T16:15:27.724Z,2.03
2023-02-27T16:17:40.161Z,2.01
2023-02-27T16:19:47.220Z,2.04
2023-02-27T16:22:09.343Z,2.05
2023-02-27T16:24:24.524Z,2.04
2023-02-27T16:26:36.697Z,2.04
2023-02-27T16:28:47.890Z,1.99
2023-02-27T16:30:56.835Z,2.03
2023-02-27T16:33:03.868Z,2.09
2023-02-27T16:35:18.392Z,2.17
2023-02-27T16:37:25.020Z,2.20
2023-02-27T16:39:30.554Z,2.15
2023-02-27T16:41:38.003Z,2.14
2023-02-27T16:43:45.090Z,2.11
2023-02-27T16:45:56.103Z,2.11
2023-02-27T16:48:02.999Z,2.04
2023-02-27T16:50:13.052Z,2.03
2023-02-27T16:52:17.889Z,1.96
2023-02-27T16:54:28.460Z,1.91
2023-02-27T16:56:38.390Z,1.81
2023-02-27T16:58:46.038Z,1.77
2023-02-27T17:00:50.898Z,1.80
2023-02-27T17:02:55.810Z,1.78
2023-02-27T17:05:00.600Z,1.77
2023-02-27T17:07:06.994Z,1.71
2023-02-27T17:09:12.518Z,1.74
2023-02-27T17:11:17.373Z,1.69
2023-02-27T17:13:22.136Z,1.66
2023-02-27T17:15:30.110Z,1.62
2023-02-27T17:17:34.918Z,1.55
2023-02-27T17:19:39.972Z,1.51
2023-02-27T17:21:44.927Z,1.49
2023-02-27T17:23:49.989Z,1.50
2023-02-27T17:25:56.124Z,1.46
2023-02-27T17:28:01.174Z,1.51
2023-02-27T17:30:06.232Z,1.51
2023-02-27T17:32:13.426Z,1.50
2023-02-27T17:34:18.690Z,1.56
2023-02-27T17:36:25.024Z,1.64
2023-02-27T17:38:29.864Z,1.68
2023-02-27T17:40:34.877Z,1.71
2023-02-27T17:42:39.989Z,1.74
2023-02-27T17:44:45.109Z,1.75
2023-02-27T17:46:49.912Z,1.75
2023-02-27T17:49:00.752Z,1.84
2023-02-27T17:51:09.864Z,1.83
2023-02-27T17:53:15.742Z,1.86
2023-02-27T17:55:20.584Z,1.89
2023-02-27T17:57:25.517Z,1.93
2023-02-27T17:59:30.241Z,1.99
2023-02-27T18:01:38.057Z,1.97
2023-02-27T18:03:44.308Z,2.01
2023-02-27T18:05:56.070Z,1.99
2023-02-27T18:08:00.809Z,2.00
2023-02-27T18:10:06.189Z,1.97
2023-02-27T18:12:11.044Z,2.00
2023-02-27T18:14:15.904Z,2.01
2023-02-27T18:16:22.101Z,1.97
2023-02-27T18:18:27.597Z,1.95
2023-02-27T18:20:32.542Z,1.81
2023-02-27T18:22:39.970Z,1.84
2023-02-27T18:24:44.730Z,1.84
2023-02-27T18:26:49.593Z,1.90
2023-02-27T18:28:54.525Z,1.93
2023-02-27T18:30:59.513Z,1.92
2023-02-27T18:33:04.322Z,1.88
2023-02-27T18:35:09.512Z,1.89
2023-02-27T18:37:14.036Z,1.91
2023-02-27T18:39:24.348Z,1.90
2023-02-27T18:41:30.124Z,1.93
2023-02-27T18:43:36.041Z,1.90
2023-02-27T18:45:40.960Z,1.94
2023-02-27T18:47:45.753Z,1.92
2023-02-27T18:49:51.281Z,1.91
2023-02-27T18:51:56.106Z,1.81
2023-02-27T18:54:01.249Z,1.87
2023-02-27T18:56:09.663Z,1.87
2023-02-27T18:58:14.514Z,1.83
2023-02-27T19:00:21.757Z,1.81
2023-02-27T19:02:26.948Z,1.79
2023-02-27T19:04:35.442Z,1.80
2023-02-27T19:06:43.126Z,1.79
2023-02-27T19:08:48.886Z,1.78
2023-02-27T19:10:53.701Z,1.74
2023-02-27T19:13:01.224Z,1.65
2023-02-27T19:15:06.433Z,1.50
2023-02-27T19:17:11.232Z,1.48
2023-02-27T19:19:16.121Z,1.36
2023-02-27T19:21:21.014Z,1.32
2023-02-27T19:23:25.753Z,1.27
2023-02-27T19:25:30.583Z,1.22
2023-02-27T19:27:38.110Z,1.17
2023-02-27T19:29:45.580Z,1.10
2023-02-27T19:31:50.529Z,1.04
2023-02-27T19:33:55.618Z,0.99
2023-02-27T19:36:01.057Z,0.92
2023-02-27T19:38:06.130Z,0.81
2023-02-27T19:40:13.557Z,0.80
2023-02-27T19:42:21.453Z,0.76
2023-02-27T19:44:26.607Z,0.71
2023-02-27T19:46:35.813Z,0.67
2023-02-27T19:48:41.337Z,0.55
2023-02-27T19:50:46.165Z,0.53
2023-02-27T19:52:50.938Z,0.52
2023-02-27T19:54:56.381Z,0.50
2023-02-27T19:57:01.233Z,0.52
2023-02-27T19:59:06.036Z,0.50
2023-02-27T20:01:11.284Z,0.49
2023-02-27T20:03:21.041Z,0.40
2023-02-27T20:05:25.951Z,0.38
2023-02-27T20:07:32.301Z,0.32
2023-02-27T20:09:37.170Z,0.30
2023-02-27T20:11:41.982Z,0.27
2023-02-27T20:13:46.859Z,0.27
2023-02-27T20:15:58.557Z,0.31
2023-02-27T20:18:03.426Z,0.26
2023-02-27T20:20:12.617Z,0.26
2023-02-27T20:22:17.466Z,0.31
2023-02-27T20:24:22.562Z,0.31
2023-02-27T20:26:28.947Z,0.36
2023-02-27T20:28:34.546Z,0.34
2023-02-27T20:30:39.396Z,0.35
2023-02-27T20:32:46.215Z,0.38
2023-02-27T20:34:51.228Z,0.33
2023-02-27T20:37:00.344Z,0.40
2023-02-27T20:39:06.695Z,0.42
2023-02-27T20:41:13.606Z,0.42
2023-02-27T20:43:20.642Z,0.50
2023-02-27T20:45:25.496Z,0.53
2023-02-27T20:47:30.341Z,0.58
2023-02-27T20:49:37.970Z,0.55
2023-02-27T20:51:43.322Z,0.56
2023-02-27T20:53:52.853Z,0.59
2023-02-27T20:55:57.741Z,0.61
2023-02-27T20:58:02.658Z,0.55
2023-02-27T21:00:12.326Z,0.53
2023-02-27T21:02:17.194Z,0.43
2023-02-27T21:04:23.911Z,0.39
2023-02-27T21:06:30.514Z,0.35
2023-02-27T21:08:38.708Z,0.33
2023-02-27T21:10:46.688Z,0.32
2023-02-27T21:12:51.548Z,0.25
2023-02-27T21:14:56.465Z,0.22
2023-02-27T21:17:01.725Z,0.17
2023-02-27T21:19:07.529Z,0.14
2023-02-27T21:21:14.694Z,0.12
2023-02-27T21:23:19.459Z,0.09
2023-02-27T21:25:24.333Z,0.11
2023-02-27T21:27:31.822Z,0.11
2023-02-27T21:29:36.582Z,0.06
2023-02-27T21:31:45.194Z,0.07
2023-02-27T21:33:50.519Z,0.03
2023-02-27T21:35:55.389Z,0.02
2023-02-27T21:38:00.215Z,0.02
2023-02-27T21:40:05.117Z,0.01
2023-02-27T21:42:10.065Z,-0.04
2023-02-27T21:44:19.494Z,-0.04
2023-02-27T21:46:24.361Z,-0.10
2023-02-27T21:48:29.168Z,-0.10
2023-02-27T21:50:34.088Z,-0.13
2023-02-27T21:52:38.876Z,-0.15
2023-02-27T21:54:46.705Z,-0.17
2023-02-27T21:56:53.975Z,-0.18
2023-02-27T21:59:02.009Z,-0.22
2023-02-27T22:01:15.864Z,-0.22
2023-02-27T22:03:20.963Z,-0.29
2023-02-27T22:05:25.608Z,-0.28
2023-02-27T22:07:30.490Z,-0.30
2023-02-27T22:09:37.597Z,-0.30
2023-02-27T22:11:42.689Z,-0.29
2023-02-27T22:13:47.837Z,-0.30
2023-02-27T22:15:52.455Z,-0.36
2023-02-27T22:17:59.815Z,-0.36
2023-02-27T22:20:07.048Z,-0.38
2023-02-27T22:22:11.946Z,-0.38
2023-02-27T22:24:16.980Z,-0.42
2023-02-27T22:26:24.532Z,-0.50
2023-02-27T22:28:29.333Z,-0.49
2023-02-27T22:30:34.263Z,-0.48
2023-02-27T22:32:40.709Z,-0.52
2023-02-27T22:34:47.854Z,-0.60
2023-02-27T22:36:53.328Z,-0.70
2023-02-27T22:38:58.498Z,-0.68
2023-02-27T22:41:05.846Z,-0.72
2023-02-27T22:43:11.313Z,-0.72
2023-02-27T22:45:16.759Z,-0.77
2023-02-27T22:47:21.567Z,-0.76
2023-02-27T22:49:26.923Z,-0.77
2023-02-27T22:51:34.659Z,-0.77
2023-02-27T22:53:40.826Z,-0.81
2023-02-27T22:55:45.581Z,-0.82
2023-02-27T22:57:51.892Z,-0.83
2023-02-27T22:59:56.686Z,-0.87
2023-02-27T23:02:01.594Z,-0.85
2023-02-27T23:04:08.580Z,-0.84
2023-02-27T23:06:18.026Z,-0.88
2023-02-27T23:08:25.395Z,-0.92
2023-02-27T23:10:30.202Z,-0.95
2023-02-27T23:12:34.997Z,-0.95
2023-02-27T23:14:39.841Z,-0.93
2023-02-27T23:16:46.113Z,-0.96
2023-02-27T23:18:52.423Z,-0.91
2023-02-27T23:20:57.580Z,-0.88
2023-02-27T23:23:02.166Z,-0.84
2023-02-27T23:25:11.918Z,-0.83
2023-02-27T23:27:25.704Z,-0.81
2023-02-27T23:29:30.785Z,-0.80
2023-02-27T23:31:38.971Z,-0.80
2023-02-27T23:33:43.909Z,-0.86
2023-02-27T23:35:49.175Z,-0.89
2023-02-27T23:37:54.730Z,-0.91
2023-02-27T23:39:59.562Z,-0.92
2023-02-27T23:42:07.220Z,-0.93
2023-02-27T23:44:24.524Z,-0.94
2023-02-27T23:46:30.446Z,-0.99
2023-02-27T23:48:35.872Z,-1.02
2023-02-27T23:50:41.415Z,-1.01
2023-02-27T23:52:46.270Z,-1.02
2023-02-27T23:54:51.081Z,-1.02
2023-02-27T23:56:55.920Z,-1.04
2023-02-27T23:59:05.758Z,-1.01
